Time;durP1;ratioP1;P1;durP2;ratioP2;P2;SDS_P1;SDS_P2;PMS_P1;PMS_P2;Temp;Humidity;BMP_temperature;BMP_pressure;BME280_temperature;BME280_humidity;BME280_pressure;Samples;Min_cycle;Max_cycle;Signal;HPM_P1;HPM_P2
2023/05/20 00:00:26;;;;;;;12.52;4.93;;;;;;;;;;5101015;27;20077;-72
2023/05/20 00:02:51;;;;;;;9.48;5.03;;;;;;;;;;5107476;27;20040;-71
2023/05/20 00:05:17;;;;;;;10.20;4.63;;;;;;;;;;5099585;28;20044;-72
2023/05/20 00:07:42;;;;;;;9.70;4.78;;;;;;;;;;5096082;27;20357;-71
2023/05/20 00:10:08;;;;;;;10.82;5.03;;;;;;;;;;5099300;27;20031;-71
2023/05/20 00:12:34;;;;;;;12.35;5.18;;;;;;;;;;5096472;28;20032;-72
2023/05/20 00:15:00;;;;;;;10.70;4.95;;;;;;;;;;5099693;28;20097;-72
2023/05/20 00:17:27;;;;;;;8.80;4.70;;;;;;;;;;5103889;27;20048;-72
2023/05/20 00:19:52;;;;;;;12.32;5.78;;;;;;;;;;5109587;27;20518;-71
2023/05/20 00:22:18;;;;;;;12.45;5.15;;;;;;;;;;5104560;28;20051;-71
2023/05/20 00:24:43;;;;;;;9.48;4.90;;;;;;;;;;5109722;28;20035;-71
2023/05/20 00:27:09;;;;;;;10.27;5.07;;;;;;;;;;5111562;28;20078;-71
2023/05/20 00:29:34;;;;;;;12.07;5.10;;;;;;;;;;5099913;27;20040;-72
2023/05/20 00:32:00;;;;;;;11.15;5.40;;;;;;;;;;5096786;27;20036;-72
2023/05/20 00:34:25;;;;;;;12.38;5.43;;;;;;;;;;5093473;27;20040;-71
2023/05/20 00:36:51;;;;;;;14.85;5.78;;;;;;;;;;5090980;27;20040;-71
2023/05/20 00:39:16;;;;;;;23.40;5.88;;;;;;;;;;5100114;27;20047;-72
2023/05/20 00:41:41;;;;;;;10.65;5.40;;;;;;;;;;5095544;27;20408;-72
2023/05/20 00:44:07;;;;;;;12.85;5.25;;;;;;;;;;5094436;28;20031;-72
2023/05/20 00:46:32;;;;;;;11.88;5.57;;;;;;;;;;5097740;27;20046;-72
2023/05/20 00:48:57;;;;;;;12.98;5.72;;;;;;;;;;5095553;27;20450;-71
2023/05/20 00:51:23;;;;;;;11.38;5.80;;;;;;;;;;5102679;28;20027;-72
2023/05/20 00:53:49;;;;;;;10.95;5.45;;;;;;;;;;5091246;28;20042;-71
2023/05/20 00:56:15;;;;;;;10.90;5.25;;;;;;;;;;5096840;27;20062;-72
2023/05/20 00:58:40;;;;;;;17.00;4.82;;;;;;;;;;5100776;28;20047;-71
2023/05/20 01:01:05;;;;;;;13.38;6.20;;;;;;;;;;5099444;27;20047;-71
2023/05/20 01:03:31;;;;;;;12.95;5.72;;;;;;;;;;5095789;27;20424;-71
2023/05/20 01:05:57;;;;;;;11.07;5.38;;;;;;;;;;5103350;27;20027;-72
2023/05/20 01:08:27;;;;;;;10.07;5.47;;;;;;;;;;5102734;27;20560;-71
2023/05/20 01:11:20;;;;;;;8.68;5.22;;;;;;;;;;5095217;27;20043;-72
2023/05/20 01:13:50;;;;;;;13.95;5.78;;;;;;;;;;5105949;27;20504;-71
2023/05/20 01:16:17;;;;;;;14.50;6.57;;;;;;;;;;5091090;27;20019;-71
2023/05/20 01:18:44;;;;;;;11.30;6.22;;;;;;;;;;5092991;27;20737;-71
2023/05/20 01:21:11;;;;;;;14.57;6.18;;;;;;;;;;5091631;27;20040;-71
2023/05/20 01:23:40;;;;;;;13.52;5.82;;;;;;;;;;5096278;27;20046;-71
2023/05/20 01:26:06;;;;;;;11.20;5.70;;;;;;;;;;5105193;27;20112;-71
2023/05/20 01:28:35;;;;;;;11.13;5.78;;;;;;;;;;5089056;27;20035;-71
2023/05/20 01:31:03;;;;;;;14.10;6.00;;;;;;;;;;5090825;27;20035;-72
2023/05/20 01:33:29;;;;;;;14.25;6.30;;;;;;;;;;5097524;28;20515;-71
2023/05/20 01:35:56;;;;;;;11.98;6.00;;;;;;;;;;5102136;28;20047;-71
2023/05/20 01:38:23;;;;;;;12.57;6.00;;;;;;;;;;5085495;28;20770;-71
2023/05/20 01:40:48;;;;;;;14.32;5.85;;;;;;;;;;5090096;27;20044;-72
2023/05/20 01:43:15;;;;;;;11.57;5.82;;;;;;;;;;5094036;28;20027;-71
2023/05/20 01:45:41;;;;;;;10.43;5.78;;;;;;;;;;5098880;28;20031;-71
2023/05/20 01:48:10;;;;;;;10.45;5.97;;;;;;;;;;5103612;27;20062;-71
2023/05/20 01:50:35;;;;;;;12.43;6.22;;;;;;;;;;5093644;28;20042;-71
2023/05/20 01:53:01;;;;;;;11.45;5.65;;;;;;;;;;5097822;27;20036;-71
2023/05/20 01:55:26;;;;;;;15.05;5.93;;;;;;;;;;5108760;27;20040;-71
2023/05/20 01:57:51;;;;;;;10.80;5.65;;;;;;;;;;5100230;28;20023;-71
2023/05/20 02:00:17;;;;;;;10.43;5.38;;;;;;;;;;5104313;27;20424;-71
2023/05/20 02:02:42;;;;;;;13.25;5.57;;;;;;;;;;5094581;28;20453;-71
2023/05/20 02:05:08;;;;;;;9.40;5.10;;;;;;;;;;5102102;28;20655;-72
2023/05/20 02:07:33;;;;;;;10.20;5.60;;;;;;;;;;5093259;27;20039;-71
2023/05/20 02:09:59;;;;;;;9.82;5.55;;;;;;;;;;5105871;27;20031;-71
2023/05/20 02:12:24;;;;;;;8.50;5.25;;;;;;;;;;5099955;28;20061;-71
2023/05/20 02:14:50;;;;;;;10.90;5.43;;;;;;;;;;5101402;27;20511;-72
2023/05/20 02:17:16;;;;;;;13.48;5.43;;;;;;;;;;5086534;28;20044;-71
2023/05/20 02:19:43;;;;;;;11.18;5.70;;;;;;;;;;5094685;27;20040;-71
2023/05/20 02:22:08;;;;;;;10.65;5.50;;;;;;;;;;5103410;28;20111;-71
2023/05/20 02:24:34;;;;;;;8.90;5.05;;;;;;;;;;5096105;28;20507;-71
2023/05/20 02:27:00;;;;;;;11.63;5.53;;;;;;;;;;5089730;28;20090;-71
2023/05/20 02:29:25;;;;;;;10.23;5.43;;;;;;;;;;5100297;28;20055;-71
2023/05/20 02:31:51;;;;;;;11.05;5.20;;;;;;;;;;5088572;28;21882;-71
2023/05/20 02:34:17;;;;;;;9.25;5.70;;;;;;;;;;5098389;27;20044;-71
2023/05/20 02:36:42;;;;;;;10.20;5.45;;;;;;;;;;5097222;28;20563;-71
2023/05/20 02:39:08;;;;;;;7.78;4.72;;;;;;;;;;5090967;27;20040;-71
2023/05/20 02:41:33;;;;;;;8.25;5.05;;;;;;;;;;5088830;27;20416;-71
2023/05/20 02:43:59;;;;;;;9.68;4.97;;;;;;;;;;5091167;28;20043;-72
2023/05/20 02:46:24;;;;;;;9.23;5.20;;;;;;;;;;5090504;28;20027;-71
2023/05/20 02:48:50;;;;;;;9.05;4.63;;;;;;;;;;5097616;28;20408;-71
2023/05/20 02:51:15;;;;;;;10.02;4.97;;;;;;;;;;5092874;27;20028;-71
2023/05/20 02:53:40;;;;;;;8.80;5.30;;;;;;;;;;5103043;28;20063;-72
2023/05/20 02:56:07;;;;;;;10.18;5.13;;;;;;;;;;5086245;28;20031;-71
2023/05/20 02:58:34;;;;;;;10.68;4.80;;;;;;;;;;5101143;27;20104;-71
2023/05/20 03:01:00;;;;;;;11.57;5.65;;;;;;;;;;5103152;27;20073;-71
2023/05/20 03:03:26;;;;;;;7.78;5.13;;;;;;;;;;5102280;27;20066;-71
2023/05/20 03:05:52;;;;;;;9.93;5.32;;;;;;;;;;5102817;28;20500;-71
2023/05/20 03:08:19;;;;;;;7.97;5.07;;;;;;;;;;5098963;28;20043;-71
2023/05/20 03:10:45;;;;;;;10.55;5.07;;;;;;;;;;5125171;27;20082;-71
2023/05/20 03:13:10;;;;;;;9.07;5.45;;;;;;;;;;5099980;27;20558;-71
2023/05/20 03:15:39;;;;;;;13.30;5.40;;;;;;;;;;5092791;28;20069;-72
2023/05/20 03:18:07;;;;;;;9.30;5.00;;;;;;;;;;5085983;28;20052;-72
2023/05/20 03:20:35;;;;;;;8.95;5.05;;;;;;;;;;5092822;27;20134;-72
2023/05/20 03:23:01;;;;;;;15.00;5.55;;;;;;;;;;5098465;28;20111;-71
2023/05/20 03:25:26;;;;;;;10.77;5.43;;;;;;;;;;5101379;28;20035;-71
2023/05/20 03:27:52;;;;;;;11.23;5.55;;;;;;;;;;5097100;28;20095;-71
2023/05/20 03:30:17;;;;;;;12.50;5.40;;;;;;;;;;5097429;27;20046;-71
2023/05/20 03:32:43;;;;;;;9.63;5.00;;;;;;;;;;5095226;27;20055;-71
2023/05/20 03:35:08;;;;;;;9.02;4.95;;;;;;;;;;5094007;28;20032;-71
2023/05/20 03:37:34;;;;;;;6.68;4.57;;;;;;;;;;5091918;27;20263;-72
2023/05/20 03:40:00;;;;;;;9.05;5.38;;;;;;;;;;5091533;27;20032;-72
2023/05/20 03:42:25;;;;;;;8.80;5.35;;;;;;;;;;5094943;28;20481;-71
2023/05/20 03:44:50;;;;;;;13.20;5.22;;;;;;;;;;5095255;27;20474;-71
2023/05/20 03:47:16;;;;;;;11.80;5.00;;;;;;;;;;5094638;27;20155;-72
2023/05/20 03:49:41;;;;;;;10.35;5.20;;;;;;;;;;5100430;28;20071;-72
2023/05/20 03:52:07;;;;;;;12.10;5.20;;;;;;;;;;5083000;28;20031;-71
2023/05/20 03:54:34;;;;;;;6.93;4.72;;;;;;;;;;5100767;28;20041;-72
2023/05/20 03:56:59;;;;;;;11.07;4.88;;;;;;;;;;5097356;27;20780;-71
2023/05/20 03:59:26;;;;;;;10.70;4.80;;;;;;;;;;5098863;27;20036;-72
2023/05/20 04:01:51;;;;;;;11.32;5.65;;;;;;;;;;5093815;27;20040;-70
2023/05/20 04:04:17;;;;;;;14.65;5.40;;;;;;;;;;5103723;27;20104;-72
2023/05/20 04:06:42;;;;;;;10.20;5.00;;;;;;;;;;5102846;28;20559;-71
2023/05/20 04:09:08;;;;;;;9.15;5.20;;;;;;;;;;5101830;27;20030;-71
2023/05/20 04:11:33;;;;;;;8.80;4.97;;;;;;;;;;5098710;28;20122;-71
2023/05/20 04:13:59;;;;;;;13.35;5.45;;;;;;;;;;5100224;27;20055;-71
2023/05/20 04:16:24;;;;;;;10.07;5.30;;;;;;;;;;5103968;28;20501;-71
2023/05/20 04:18:51;;;;;;;11.23;5.32;;;;;;;;;;5102385;27;20086;-71
2023/05/20 04:21:17;;;;;;;8.88;4.97;;;;;;;;;;5096135;28;20066;-71
2023/05/20 04:23:43;;;;;;;7.45;5.13;;;;;;;;;;5094063;27;20150;-71
2023/05/20 04:26:08;;;;;;;9.20;4.55;;;;;;;;;;5095200;27;20453;-71
2023/05/20 04:28:33;;;;;;;8.73;4.57;;;;;;;;;;5101842;27;20089;-71
2023/05/20 04:31:05;;;;;;;8.82;5.07;;;;;;;;;;5098449;27;20030;-71
2023/05/20 04:33:31;;;;;;;9.75;5.20;;;;;;;;;;5104634;28;20019;-72
2023/05/20 04:35:57;;;;;;;9.77;5.32;;;;;;;;;;5097671;27;20061;-72
2023/05/20 04:38:29;;;;;;;10.63;6.10;;;;;;;;;;5097709;28;20888;-71
2023/05/20 04:41:01;;;;;;;19.98;6.05;;;;;;;;;;5097344;27;20032;-71
2023/05/20 04:43:30;;;;;;;8.82;5.10;;;;;;;;;;5105811;27;20119;-72
2023/05/20 04:45:56;;;;;;;7.25;4.63;;;;;;;;;;5093880;28;20102;-71
2023/05/20 04:48:22;;;;;;;8.88;4.72;;;;;;;;;;5090328;27;20134;-71
2023/05/20 04:50:48;;;;;;;10.30;4.82;;;;;;;;;;5092251;28;20050;-71
2023/05/20 04:53:17;;;;;;;6.93;4.60;;;;;;;;;;5100163;27;20161;-71
2023/05/20 04:55:44;;;;;;;9.20;4.90;;;;;;;;;;5086118;27;20136;-72
2023/05/20 04:58:16;;;;;;;11.85;5.53;;;;;;;;;;5095151;28;20039;-72
2023/05/20 05:00:45;;;;;;;8.18;4.88;;;;;;;;;;5096041;28;20186;-71
2023/05/20 05:03:13;;;;;;;7.85;5.05;;;;;;;;;;5090818;28;20046;-71
2023/05/20 05:05:39;;;;;;;12.52;5.32;;;;;;;;;;5083124;28;20046;-72
2023/05/20 05:08:05;;;;;;;9.70;5.22;;;;;;;;;;5086740;28;20035;-71
2023/05/20 05:10:31;;;;;;;11.65;5.25;;;;;;;;;;5086425;27;20517;-72
2023/05/20 05:12:57;;;;;;;9.02;5.18;;;;;;;;;;5089516;27;20038;-71
2023/05/20 05:15:23;;;;;;;8.18;4.85;;;;;;;;;;5085972;28;20070;-72
2023/05/20 05:17:48;;;;;;;12.75;5.30;;;;;;;;;;5086946;27;20520;-71
2023/05/20 05:20:14;;;;;;;11.60;5.15;;;;;;;;;;5084823;27;20043;-71
2023/05/20 05:22:40;;;;;;;9.05;5.00;;;;;;;;;;5083706;27;20134;-72
2023/05/20 05:25:07;;;;;;;10.05;4.75;;;;;;;;;;5086628;27;20602;-71
2023/05/20 05:27:32;;;;;;;10.02;5.20;;;;;;;;;;5084018;28;20445;-71
2023/05/20 05:29:58;;;;;;;6.80;4.70;;;;;;;;;;5084196;27;20733;-72
2023/05/20 05:32:23;;;;;;;9.88;4.93;;;;;;;;;;5090129;27;20038;-72
2023/05/20 05:34:49;;;;;;;11.95;4.82;;;;;;;;;;5094157;27;20040;-71
2023/05/20 05:37:15;;;;;;;10.05;4.93;;;;;;;;;;5103041;27;20434;-72
2023/05/20 05:39:40;;;;;;;14.70;5.25;;;;;;;;;;5104283;28;20027;-72
2023/05/20 05:42:05;;;;;;;8.45;5.00;;;;;;;;;;5103334;27;20047;-71
2023/05/20 05:44:31;;;;;;;8.40;5.25;;;;;;;;;;5099348;27;20036;-72
2023/05/20 05:46:56;;;;;;;11.98;7.90;;;;;;;;;;5103735;28;20031;-72
2023/05/20 05:49:21;;;;;;;10.95;4.85;;;;;;;;;;5101594;27;20035;-71
2023/05/20 05:51:47;;;;;;;12.57;5.30;;;;;;;;;;5103755;28;20070;-71
2023/05/20 05:54:12;;;;;;;10.95;5.35;;;;;;;;;;5104549;27;20080;-71
2023/05/20 05:56:38;;;;;;;9.15;5.78;;;;;;;;;;5108309;27;20059;-71
2023/05/20 05:59:04;;;;;;;12.68;5.53;;;;;;;;;;5099845;27;20036;-71
2023/05/20 06:01:29;;;;;;;8.60;5.03;;;;;;;;;;5094387;28;20127;-71
2023/05/20 06:03:54;;;;;;;12.13;5.38;;;;;;;;;;5105181;27;20102;-71
2023/05/20 06:06:20;;;;;;;10.75;5.65;;;;;;;;;;5110507;27;20475;-72
2023/05/20 06:08:45;;;;;;;10.60;5.45;;;;;;;;;;5102613;27;20038;-72
2023/05/20 06:11:11;;;;;;;12.15;5.63;;;;;;;;;;5100454;27;20096;-72
2023/05/20 06:13:36;;;;;;;10.80;5.25;;;;;;;;;;5099072;28;20115;-72
2023/05/20 06:16:02;;;;;;;11.88;5.90;;;;;;;;;;5095682;27;20092;-71
2023/05/20 06:18:27;;;;;;;11.82;6.28;;;;;;;;;;5106423;27;20070;-71
2023/05/20 06:20:57;;;;;;;10.27;5.13;;;;;;;;;;5093247;27;20038;-72
2023/05/20 06:23:22;;;;;;;15.65;6.57;;;;;;;;;;5098653;27;20035;-71
2023/05/20 06:25:49;;;;;;;10.60;5.72;;;;;;;;;;5097409;27;20031;-72
2023/05/20 06:28:14;;;;;;;13.23;6.35;;;;;;;;;;5091685;27;20516;-72
2023/05/20 06:30:40;;;;;;;10.80;5.53;;;;;;;;;;5095545;27;20015;-71
2023/05/20 06:33:06;;;;;;;14.02;6.00;;;;;;;;;;5094324;27;20035;-72
2023/05/20 06:35:33;;;;;;;15.02;5.93;;;;;;;;;;5094746;28;20039;-72
2023/05/20 06:38:00;;;;;;;9.38;4.78;;;;;;;;;;5096687;27;20057;-72
2023/05/20 06:40:26;;;;;;;13.65;6.28;;;;;;;;;;5087347;28;20031;-72
2023/05/20 06:42:51;;;;;;;9.48;5.82;;;;;;;;;;5088518;28;20020;-72
2023/05/20 06:45:17;;;;;;;9.95;6.00;;;;;;;;;;5092640;28;20035;-72
2023/05/20 06:47:43;;;;;;;11.55;6.25;;;;;;;;;;5091346;27;20063;-72
2023/05/20 06:50:09;;;;;;;12.30;6.28;;;;;;;;;;5096025;27;20032;-72
2023/05/20 06:52:35;;;;;;;13.88;5.72;;;;;;;;;;5102576;27;20435;-72
2023/05/20 06:55:01;;;;;;;12.70;6.00;;;;;;;;;;5095604;28;20024;-72
2023/05/20 06:57:26;;;;;;;12.93;5.90;;;;;;;;;;5100648;27;20879;-72
2023/05/20 06:59:51;;;;;;;12.77;6.30;;;;;;;;;;5102373;28;20196;-72
2023/05/20 07:02:17;;;;;;;11.60;5.65;;;;;;;;;;5099058;27;20544;-72
2023/05/20 07:04:42;;;;;;;10.25;5.50;;;;;;;;;;5095343;27;20126;-71
2023/05/20 07:07:07;;;;;;;9.82;6.10;;;;;;;;;;5093186;27;20026;-71
2023/05/20 07:09:33;;;;;;;11.50;6.70;;;;;;;;;;5105035;28;20484;-72
2023/05/20 07:11:58;;;;;;;17.55;6.15;;;;;;;;;;5105583;27;20024;-71
2023/05/20 07:14:23;;;;;;;16.00;6.65;;;;;;;;;;5105928;27;20036;-72
2023/05/20 07:16:49;;;;;;;12.45;6.20;;;;;;;;;;5107037;28;20028;-72
2023/05/20 07:19:14;;;;;;;11.25;5.93;;;;;;;;;;5099198;28;20031;-71
2023/05/20 07:21:40;;;;;;;11.95;5.93;;;;;;;;;;5113025;28;20034;-72
2023/05/20 07:24:05;;;;;;;15.00;6.22;;;;;;;;;;5100545;27;20516;-71
2023/05/20 07:26:32;;;;;;;11.52;6.13;;;;;;;;;;5099242;27;20032;-72
2023/05/20 07:28:58;;;;;;;15.75;6.40;;;;;;;;;;5104733;27;20050;-71
2023/05/20 07:31:23;;;;;;;11.30;6.05;;;;;;;;;;5102014;27;20536;-72
2023/05/20 07:33:49;;;;;;;10.38;5.97;;;;;;;;;;5098997;28;20024;-72
2023/05/20 07:36:14;;;;;;;10.38;6.47;;;;;;;;;;5089740;27;20044;-72
2023/05/20 07:38:40;;;;;;;11.20;5.85;;;;;;;;;;5088051;28;20040;-71
2023/05/20 07:41:05;;;;;;;9.85;5.50;;;;;;;;;;5102437;28;20042;-72
2023/05/20 07:43:31;;;;;;;15.07;6.20;;;;;;;;;;5096795;27;20127;-72
2023/05/20 07:45:57;;;;;;;11.05;5.63;;;;;;;;;;5110296;28;20042;-71
2023/05/20 07:48:22;;;;;;;9.52;5.82;;;;;;;;;;5095936;27;20957;-72
2023/05/20 07:50:47;;;;;;;12.30;5.65;;;;;;;;;;5095563;27;20081;-72
2023/05/20 07:53:13;;;;;;;8.13;5.72;;;;;;;;;;5092757;27;20043;-72
2023/05/20 07:55:38;;;;;;;9.23;5.82;;;;;;;;;;5104696;27;20943;-71
2023/05/20 07:58:04;;;;;;;11.50;5.40;;;;;;;;;;5098086;27;20449;-72
2023/05/20 08:00:29;;;;;;;13.90;6.03;;;;;;;;;;5097506;27;20040;-71
2023/05/20 08:02:55;;;;;;;9.65;5.45;;;;;;;;;;5089335;28;20032;-71
2023/05/20 08:05:21;;;;;;;11.25;5.45;;;;;;;;;;5096281;27;20046;-72
2023/05/20 08:07:47;;;;;;;8.63;5.35;;;;;;;;;;5099526;27;20043;-71
2023/05/20 08:10:13;;;;;;;10.82;5.70;;;;;;;;;;5106634;27;20031;-72
2023/05/20 08:12:38;;;;;;;10.23;5.88;;;;;;;;;;5105555;28;20019;-72
2023/05/20 08:15:04;;;;;;;10.73;5.78;;;;;;;;;;5105426;27;20702;-72
2023/05/20 08:17:31;;;;;;;8.82;5.22;;;;;;;;;;5092927;27;20028;-71
2023/05/20 08:19:56;;;;;;;8.57;4.80;;;;;;;;;;5098361;27;20128;-71
2023/05/20 08:22:22;;;;;;;7.03;5.00;;;;;;;;;;5092596;27;20233;-71
2023/05/20 08:24:47;;;;;;;9.40;5.35;;;;;;;;;;5093817;27;20062;-72
2023/05/20 08:27:12;;;;;;;8.30;5.03;;;;;;;;;;5098382;27;20060;-72
2023/05/20 08:29:38;;;;;;;7.63;4.50;;;;;;;;;;5086712;28;20123;-72
2023/05/20 08:32:03;;;;;;;7.90;4.88;;;;;;;;;;5098944;27;20078;-73
2023/05/20 08:34:29;;;;;;;10.20;5.00;;;;;;;;;;5096914;27;20589;-72
2023/05/20 08:36:55;;;;;;;9.55;5.50;;;;;;;;;;5099758;27;20289;-72
2023/05/20 08:39:21;;;;;;;9.02;4.55;;;;;;;;;;5110689;27;20092;-72
2023/05/20 08:41:47;;;;;;;7.63;4.97;;;;;;;;;;5108108;27;20027;-72
2023/05/20 08:44:12;;;;;;;6.70;4.65;;;;;;;;;;5101546;27;20055;-72
2023/05/20 08:46:38;;;;;;;12.27;4.47;;;;;;;;;;5104287;27;20467;-73
2023/05/20 08:49:03;;;;;;;9.98;5.00;;;;;;;;;;5096141;27;20481;-72
2023/05/20 08:51:32;;;;;;;9.00;4.30;;;;;;;;;;5099265;28;20027;-72
2023/05/20 08:53:58;;;;;;;8.43;4.60;;;;;;;;;;5093887;28;20032;-72
2023/05/20 08:56:26;;;;;;;9.65;4.93;;;;;;;;;;5105820;27;20046;-72
2023/05/20 08:58:52;;;;;;;10.88;4.88;;;;;;;;;;5097598;27;20035;-73
2023/05/20 09:01:17;;;;;;;9.85;3.95;;;;;;;;;;5098118;27;20043;-72
2023/05/20 09:03:43;;;;;;;11.02;4.53;;;;;;;;;;5100947;27;20515;-73
2023/05/20 09:06:08;;;;;;;6.75;4.05;;;;;;;;;;5094032;27;20456;-72
2023/05/20 09:08:35;;;;;;;10.15;4.10;;;;;;;;;;5097950;28;20054;-73
2023/05/20 09:11:01;;;;;;;5.97;4.32;;;;;;;;;;5098235;27;20032;-73
2023/05/20 09:13:28;;;;;;;9.18;4.35;;;;;;;;;;5097808;27;20036;-72
2023/05/20 09:15:54;;;;;;;6.72;3.67;;;;;;;;;;5090231;28;20077;-72
2023/05/20 09:18:19;;;;;;;6.60;4.07;;;;;;;;;;5088796;28;20031;-72
2023/05/20 09:20:49;;;;;;;9.15;4.18;;;;;;;;;;5100012;27;20413;-73
2023/05/20 09:23:18;;;;;;;8.50;3.80;;;;;;;;;;5105980;27;20042;-72
2023/05/20 09:25:43;;;;;;;6.53;4.53;;;;;;;;;;5106068;27;20092;-73
2023/05/20 09:28:09;;;;;;;8.15;4.00;;;;;;;;;;5100200;27;20031;-72
2023/05/20 09:30:34;;;;;;;9.18;3.60;;;;;;;;;;5086373;28;20024;-72
2023/05/20 09:33:03;;;;;;;6.45;3.70;;;;;;;;;;5098943;27;20123;-72
2023/05/20 09:35:28;;;;;;;5.57;3.80;;;;;;;;;;5105709;27;20035;-72
2023/05/20 09:37:55;;;;;;;8.63;3.95;;;;;;;;;;5094317;27;21418;-73
2023/05/20 09:40:26;;;;;;;6.90;3.75;;;;;;;;;;5100688;27;20055;-73
2023/05/20 09:43:10;;;;;;;5.00;3.55;;;;;;;;;;5091709;27;20016;-73
2023/05/20 09:45:37;;;;;;;6.78;3.22;;;;;;;;;;5101821;28;20036;-73
2023/05/20 09:48:04;;;;;;;5.97;3.53;;;;;;;;;;5104181;28;20032;-73
2023/05/20 09:50:30;;;;;;;7.78;3.80;;;;;;;;;;5102496;28;20039;-73
2023/05/20 09:53:01;;;;;;;6.03;3.95;;;;;;;;;;5099339;28;20063;-73
2023/05/20 09:55:26;;;;;;;6.47;3.70;;;;;;;;;;5106152;28;20042;-72
2023/05/20 09:57:53;;;;;;;6.85;3.92;;;;;;;;;;5105002;27;20440;-73
2023/05/20 10:00:20;;;;;;;10.13;4.15;;;;;;;;;;5108794;28;20050;-73
2023/05/20 10:02:49;;;;;;;7.60;3.85;;;;;;;;;;5101728;28;20743;-73
2023/05/20 10:05:18;;;;;;;7.05;3.70;;;;;;;;;;5104001;27;20035;-73
2023/05/20 10:08:21;;;;;;;7.75;3.78;;;;;;;;;;5096939;27;20032;-72
2023/05/20 10:10:53;;;;;;;7.97;3.27;;;;;;;;;;5090172;28;20036;-73
2023/05/20 10:13:42;;;;;;;7.53;3.75;;;;;;;;;;5093863;27;20039;-72
2023/05/20 10:16:28;;;;;;;5.20;3.17;;;;;;;;;;5090698;27;20502;-72
2023/05/20 10:18:54;;;;;;;6.38;3.40;;;;;;;;;;5097096;27;20081;-72
2023/05/20 10:21:23;;;;;;;5.82;3.40;;;;;;;;;;5090000;27;20085;-73
2023/05/20 10:23:50;;;;;;;5.68;3.47;;;;;;;;;;5106340;27;20571;-72
2023/05/20 10:26:15;;;;;;;5.13;3.80;;;;;;;;;;5095153;27;20035;-73
2023/05/20 10:28:42;;;;;;;11.25;3.72;;;;;;;;;;5105306;27;20039;-73
2023/05/20 10:31:19;;;;;;;9.05;3.53;;;;;;;;;;5095328;27;20562;-72
2023/05/20 10:33:45;;;;;;;5.90;3.38;;;;;;;;;;5097801;28;20024;-72
2023/05/20 10:36:27;;;;;;;4.82;3.00;;;;;;;;;;5086965;28;20028;-73
2023/05/20 10:38:58;;;;;;;5.50;3.30;;;;;;;;;;5104037;27;20031;-73
2023/05/20 10:41:27;;;;;;;6.82;3.88;;;;;;;;;;5102198;28;20044;-73
2023/05/20 10:44:03;;;;;;;5.07;3.15;;;;;;;;;;5102260;27;20555;-73
2023/05/20 10:46:30;;;;;;;7.93;3.40;;;;;;;;;;5104914;27;20050;-73
2023/05/20 10:48:56;;;;;;;7.25;3.50;;;;;;;;;;5105926;28;20032;-73
2023/05/20 10:51:22;;;;;;;5.60;3.55;;;;;;;;;;5101445;28;20043;-73
2023/05/20 10:53:52;;;;;;;6.63;3.50;;;;;;;;;;5098075;28;20032;-73
2023/05/20 10:56:22;;;;;;;6.80;3.53;;;;;;;;;;5102196;28;20133;-72
2023/05/20 10:58:48;;;;;;;6.15;3.30;;;;;;;;;;5103086;27;20063;-73
2023/05/20 11:01:15;;;;;;;5.97;3.17;;;;;;;;;;5099509;27;20071;-73
2023/05/20 11:03:42;;;;;;;4.18;3.17;;;;;;;;;;5098140;28;20042;-72
2023/05/20 11:06:12;;;;;;;6.20;3.50;;;;;;;;;;5095981;27;20044;-72
2023/05/20 11:08:37;;;;;;;6.50;2.90;;;;;;;;;;5097621;27;20039;-72
2023/05/20 11:11:02;;;;;;;7.72;4.03;;;;;;;;;;5098618;28;20472;-72
2023/05/20 11:13:29;;;;;;;6.88;3.17;;;;;;;;;;5093670;27;20119;-72
2023/05/20 11:15:55;;;;;;;5.13;3.47;;;;;;;;;;5095874;28;20059;-72
2023/05/20 11:18:20;;;;;;;6.32;3.20;;;;;;;;;;5102998;27;20443;-72
2023/05/20 11:20:46;;;;;;;5.10;3.58;;;;;;;;;;5105420;27;20080;-72
2023/05/20 11:23:13;;;;;;;10.25;3.50;;;;;;;;;;5109149;28;20032;-72
2023/05/20 11:25:39;;;;;;;5.28;3.42;;;;;;;;;;5102119;28;20096;-72
2023/05/20 11:28:08;;;;;;;4.78;3.40;;;;;;;;;;5099319;27;20917;-72
2023/05/20 11:30:34;;;;;;;5.03;3.50;;;;;;;;;;5092160;28;20042;-72
2023/05/20 11:33:01;;;;;;;6.65;3.35;;;;;;;;;;5094046;27;20048;-72
2023/05/20 11:35:29;;;;;;;9.00;3.55;;;;;;;;;;5101616;27;20031;-72
2023/05/20 11:38:05;;;;;;;5.53;3.67;;;;;;;;;;5099555;27;20691;-72
2023/05/20 11:40:32;;;;;;;7.50;3.42;;;;;;;;;;5106194;27;20042;-72
2023/05/20 11:43:00;;;;;;;5.03;3.10;;;;;;;;;;5099920;27;20593;-72
2023/05/20 11:45:28;;;;;;;9.30;3.28;;;;;;;;;;5104000;27;20004;-72
2023/05/20 11:48:01;;;;;;;4.75;3.50;;;;;;;;;;5099472;27;20043;-72
2023/05/20 11:50:26;;;;;;;5.33;3.50;;;;;;;;;;5090948;27;20043;-72
2023/05/20 11:52:59;;;;;;;5.78;3.70;;;;;;;;;;5098213;27;20408;-72
2023/05/20 11:55:25;;;;;;;7.55;3.65;;;;;;;;;;5098013;27;20036;-72
2023/05/20 11:57:51;;;;;;;5.53;3.30;;;;;;;;;;5102401;27;20028;-72
2023/05/20 12:00:17;;;;;;;3.75;3.30;;;;;;;;;;5093952;27;20076;-72
2023/05/20 12:02:43;;;;;;;4.88;3.60;;;;;;;;;;5098383;27;20036;-72
2023/05/20 12:05:09;;;;;;;5.05;3.20;;;;;;;;;;5102970;27;20050;-72
2023/05/20 12:07:35;;;;;;;7.97;3.80;;;;;;;;;;5094649;28;20028;-72
2023/05/20 12:10:02;;;;;;;5.82;3.53;;;;;;;;;;5107365;27;20028;-71
2023/05/20 12:12:27;;;;;;;6.35;3.60;;;;;;;;;;5102590;28;20103;-72
2023/05/20 12:14:52;;;;;;;6.25;3.60;;;;;;;;;;5107381;27;20126;-72
2023/05/20 12:17:18;;;;;;;4.85;3.50;;;;;;;;;;5093964;27;20032;-72
2023/05/20 12:19:43;;;;;;;10.15;4.28;;;;;;;;;;5103634;27;20041;-72
2023/05/20 12:22:08;;;;;;;7.90;3.53;;;;;;;;;;5106276;27;20022;-72
2023/05/20 12:24:34;;;;;;;7.72;3.83;;;;;;;;;;5104389;27;20404;-72
2023/05/20 12:26:59;;;;;;;4.53;3.20;;;;;;;;;;5096649;28;20416;-72
2023/05/20 12:29:24;;;;;;;9.57;3.45;;;;;;;;;;5105221;27;20055;-72
2023/05/20 12:31:50;;;;;;;9.77;3.85;;;;;;;;;;5098989;27;20051;-72
2023/05/20 12:34:15;;;;;;;4.65;3.30;;;;;;;;;;5103814;27;20027;-72
2023/05/20 12:36:41;;;;;;;5.63;3.28;;;;;;;;;;5095400;27;20115;-72
2023/05/20 12:39:07;;;;;;;5.82;3.15;;;;;;;;;;5089787;28;20085;-72
2023/05/20 12:41:32;;;;;;;5.43;3.03;;;;;;;;;;5108789;28;20074;-72
2023/05/20 12:43:57;;;;;;;4.90;3.20;;;;;;;;;;5116313;27;20046;-72
2023/05/20 12:46:23;;;;;;;6.05;3.53;;;;;;;;;;5105427;27;20539;-72
2023/05/20 12:48:48;;;;;;;4.80;3.55;;;;;;;;;;5102533;27;20023;-72
2023/05/20 12:51:14;;;;;;;5.68;3.50;;;;;;;;;;5100650;27;20039;-72
2023/05/20 12:53:39;;;;;;;6.20;3.42;;;;;;;;;;5095129;27;20477;-72
2023/05/20 12:56:05;;;;;;;4.63;3.50;;;;;;;;;;5095725;27;20040;-72
2023/05/20 12:58:30;;;;;;;5.80;3.40;;;;;;;;;;5103564;27;20063;-72
2023/05/20 13:00:55;;;;;;;7.30;3.60;;;;;;;;;;5093889;27;20101;-72
2023/05/20 13:03:21;;;;;;;6.13;3.40;;;;;;;;;;5089743;27;20044;-72
2023/05/20 13:05:46;;;;;;;4.45;3.20;;;;;;;;;;5097820;27;20091;-72
2023/05/20 13:08:13;;;;;;;6.93;3.45;;;;;;;;;;5095773;27;20081;-72
2023/05/20 13:10:38;;;;;;;5.70;3.35;;;;;;;;;;5099068;27;20101;-72
2023/05/20 13:13:04;;;;;;;4.75;3.40;;;;;;;;;;5100026;27;20491;-72
2023/05/20 13:15:31;;;;;;;9.82;3.40;;;;;;;;;;5095755;27;20035;-72
2023/05/20 13:17:57;;;;;;;6.93;3.63;;;;;;;;;;5099354;27;20517;-72
2023/05/20 13:20:23;;;;;;;5.60;3.50;;;;;;;;;;5099247;27;20046;-72
2023/05/20 13:22:49;;;;;;;5.72;3.45;;;;;;;;;;5099267;27;20032;-72
2023/05/20 13:25:14;;;;;;;6.68;3.58;;;;;;;;;;5095869;27;20562;-72
2023/05/20 13:27:40;;;;;;;4.78;2.80;;;;;;;;;;5099826;27;20027;-72
2023/05/20 13:30:06;;;;;;;5.53;3.53;;;;;;;;;;5091643;27;20059;-72
2023/05/20 13:32:31;;;;;;;5.85;3.13;;;;;;;;;;5099543;27;20027;-72
2023/05/20 13:34:58;;;;;;;8.00;2.90;;;;;;;;;;5096131;27;20037;-72
2023/05/20 13:37:24;;;;;;;4.97;3.22;;;;;;;;;;5099390;27;20134;-72
2023/05/20 13:39:50;;;;;;;3.75;3.00;;;;;;;;;;5090515;27;20504;-72
2023/05/20 13:42:15;;;;;;;3.70;2.80;;;;;;;;;;5099680;27;20028;-72
2023/05/20 13:44:40;;;;;;;4.25;2.97;;;;;;;;;;5092405;27;20056;-72
2023/05/20 13:47:06;;;;;;;11.70;3.80;;;;;;;;;;5096971;28;20027;-72
2023/05/20 13:49:31;;;;;;;6.97;3.50;;;;;;;;;;5107972;27;20089;-72
2023/05/20 13:51:56;;;;;;;20.73;4.72;;;;;;;;;;5099361;28;20011;-72
2023/05/20 13:54:22;;;;;;;6.32;3.83;;;;;;;;;;5098781;28;20039;-72
2023/05/20 13:56:47;;;;;;;5.53;3.58;;;;;;;;;;5105938;27;20546;-72
2023/05/20 13:59:13;;;;;;;4.93;3.78;;;;;;;;;;5097893;28;20122;-71
2023/05/20 14:01:43;;;;;;;7.90;3.40;;;;;;;;;;5104146;27;20113;-72
2023/05/20 14:04:09;;;;;;;5.68;3.60;;;;;;;;;;5101791;28;20904;-72
2023/05/20 14:06:34;;;;;;;4.28;3.42;;;;;;;;;;5107798;27;20051;-72
2023/05/20 14:09:02;;;;;;;6.82;4.13;;;;;;;;;;5100176;27;20092;-72
2023/05/20 14:11:27;;;;;;;4.18;3.00;;;;;;;;;;5099811;28;20161;-72
2023/05/20 14:13:52;;;;;;;9.05;3.53;;;;;;;;;;5094667;27;20037;-72
2023/05/20 14:16:18;;;;;;;4.38;3.42;;;;;;;;;;5092396;27;20039;-72
2023/05/20 14:18:43;;;;;;;5.38;3.80;;;;;;;;;;5102011;27;20027;-72
2023/05/20 14:21:10;;;;;;;4.80;3.28;;;;;;;;;;5097130;27;20039;-72
2023/05/20 14:23:35;;;;;;;6.10;3.33;;;;;;;;;;5096256;27;20528;-72
2023/05/20 14:26:01;;;;;;;5.50;3.38;;;;;;;;;;5100008;27;20564;-72
2023/05/20 14:28:26;;;;;;;5.85;3.38;;;;;;;;;;5098656;27;20035;-72
2023/05/20 14:30:53;;;;;;;4.78;3.50;;;;;;;;;;5095779;27;20024;-72
2023/05/20 14:33:18;;;;;;;4.40;3.40;;;;;;;;;;5094531;27;20047;-72